Time;durP1;ratioP1;P1;durP2;ratioP2;P2;SDS_P1;SDS_P2;PMS_P1;PMS_P2;Temp;Humidity;BMP_temperature;BMP_pressure;BME280_temperature;BME280_humidity;BME280_pressure;Samples;Min_cycle;Max_cycle;Signal;HPM_P1;HPM_P2
2023/08/12 00:00:50;;;;;;;7.60;7.05;;;;;;;13.85;100.00;96049.63;4901946;29;20075;-88
2023/08/12 00:03:15;;;;;;;8.90;7.53;;;;;;;13.79;100.00;96054.66;4907952;29;20063;-86
2023/08/12 00:05:42;;;;;;;7.78;7.15;;;;;;;13.72;100.00;96068.34;4913182;29;20044;-86
2023/08/12 00:08:08;;;;;;;8.07;7.40;;;;;;;13.66;100.00;96082.00;5118041;23;20067;-87
2023/08/12 00:10:33;;;;;;;8.23;7.63;;;;;;;13.72;100.00;96083.13;4915573;29;20032;-90
2023/08/12 00:12:59;;;;;;;8.75;7.68;;;;;;;13.75;100.00;96088.00;4928892;29;20028;-93
2023/08/12 00:15:24;;;;;;;8.55;7.75;;;;;;;13.78;100.00;96090.28;4927931;29;20027;-90
2023/08/12 00:17:50;;;;;;;8.98;7.55;;;;;;;13.82;100.00;96078.59;4930201;29;20478;-94
2023/08/12 00:20:16;;;;;;;8.52;7.82;;;;;;;13.70;100.00;96075.50;4929080;29;20039;-94
2023/08/12 00:22:41;;;;;;;8.88;8.25;;;;;;;13.65;100.00;96088.16;4932858;29;20036;-90
2023/08/12 00:27:42;;;;;;;8.48;7.68;;;;;;;13.63;100.00;96110.13;5428431;23;20067;-92
2023/08/12 00:30:08;;;;;;;7.60;6.88;;;;;;;13.66;100.00;96075.97;4926731;29;20091;-92
2023/08/12 00:32:34;;;;;;;8.57;7.78;;;;;;;13.70;100.00;96087.69;4929583;29;20111;-92
2023/08/12 00:34:59;;;;;;;8.25;7.65;;;;;;;13.59;100.00;96093.22;4915005;29;20127;-88
2023/08/12 00:37:24;;;;;;;8.45;7.65;;;;;;;13.54;100.00;96114.53;4928450;29;20421;-90
2023/08/12 00:39:50;;;;;;;9.05;8.13;;;;;;;13.52;100.00;96126.06;4928015;29;20027;-91
2023/08/12 00:42:15;;;;;;;8.75;8.05;;;;;;;13.55;100.00;96131.75;4914620;29;20057;-90
2023/08/12 00:44:41;;;;;;;9.23;8.57;;;;;;;13.58;100.00;96133.25;4928447;29;20031;-89
2023/08/12 00:47:06;;;;;;;9.13;7.10;;;;;;;13.61;100.00;96119.91;4926296;29;20082;-88
2023/08/12 00:49:32;;;;;;;9.60;8.48;;;;;;;13.48;100.00;96117.78;4902604;29;20566;-89
2023/08/12 00:51:58;;;;;;;9.30;8.20;;;;;;;13.52;100.00;96126.06;4906980;29;20036;-91
2023/08/12 00:54:26;;;;;;;8.55;7.35;;;;;;;13.64;100.00;96114.38;4915383;29;20038;-91
2023/08/12 00:56:52;;;;;;;9.27;7.68;;;;;;;13.68;100.00;96097.44;4908517;29;20039;-90
2023/08/12 00:59:19;;;;;;;12.68;7.68;;;;;;;13.43;100.00;96088.78;4909233;29;20036;-89
2023/08/12 01:01:45;;;;;;;9.35;8.65;;;;;;;13.38;100.00;96104.09;4908819;29;20028;-90
2023/08/12 01:04:10;;;;;;;8.80;8.10;;;;;;;13.33;100.00;96126.31;4908228;29;20100;-91
2023/08/12 01:06:36;;;;;;;10.43;9.35;;;;;;;13.30;100.00;96137.06;4906079;29;20028;-87
2023/08/12 01:09:05;;;;;;;10.45;9.45;;;;;;;13.33;100.00;96141.94;4897548;29;20108;-90
2023/08/12 01:11:46;;;;;;;10.00;9.00;;;;;;;13.40;100.00;96137.75;4906833;29;20370;-90
2023/08/12 01:14:23;;;;;;;10.00;8.98;;;;;;;13.31;100.00;96139.50;4890121;29;20032;-91
2023/08/12 01:16:53;;;;;;;10.45;9.57;;;;;;;13.33;100.00;96137.56;4902413;29;20039;-89
2023/08/12 01:19:44;;;;;;;10.05;8.98;;;;;;;13.09;100.00;96127.06;4890763;29;20041;-92
2023/08/12 01:22:11;;;;;;;10.05;9.07;;;;;;;13.18;100.00;96155.56;4891157;29;20348;-91
2023/08/12 01:24:42;;;;;;;11.32;8.73;;;;;;;13.10;100.00;96162.50;4909466;29;20032;-89
2023/08/12 01:27:09;;;;;;;11.02;9.98;;;;;;;13.03;100.00;96175.31;4908725;29;20051;-90
2023/08/12 01:29:41;;;;;;;12.25;11.05;;;;;;;13.09;100.00;96190.31;4900920;29;20040;-87
2023/08/12 01:34:56;;;;;;;9.75;8.80;;;;;;;13.02;100.00;96209.25;5019279;23;20083;-90
2023/08/12 01:37:25;;;;;;;11.27;10.18;;;;;;;12.97;100.00;96208.91;4926181;29;20031;-90
2023/08/12 01:39:53;;;;;;;9.57;8.87;;;;;;;13.00;100.00;96211.22;4927698;29;20031;-89
2023/08/12 01:42:19;;;;;;;10.73;9.50;;;;;;;13.02;100.00;96211.84;4943734;29;20031;-90
2023/08/12 01:44:45;;;;;;;9.60;8.68;;;;;;;13.04;100.00;96208.13;4941510;29;20043;-88
2023/08/12 01:47:11;;;;;;;9.25;8.35;;;;;;;13.04;100.00;96189.09;4943042;29;20035;-90
2023/08/12 01:49:37;;;;;;;9.85;8.88;;;;;;;12.96;100.00;96181.28;4898157;29;20054;-87
2023/08/12 01:52:02;;;;;;;9.88;9.13;;;;;;;12.99;100.00;96192.19;4918208;29;20067;-89
2023/08/12 01:54:33;;;;;;;12.13;10.90;;;;;;;12.85;100.00;96184.13;4928475;29;20085;-91
2023/08/12 01:57:02;;;;;;;11.43;10.45;;;;;;;12.85;100.00;96197.13;4919041;29;20035;-90
2023/08/12 01:59:27;;;;;;;11.57;10.25;;;;;;;12.92;100.00;96203.34;4939940;29;20027;-89
2023/08/12 02:01:52;;;;;;;9.77;8.75;;;;;;;12.86;100.00;96196.16;4922440;29;20023;-90
2023/08/12 02:04:18;;;;;;;9.88;9.02;;;;;;;12.80;100.00;96191.59;4939499;29;20639;-88
2023/08/12 02:06:43;;;;;;;10.65;9.75;;;;;;;12.79;100.00;96189.94;4923848;29;20031;-89
2023/08/12 02:09:09;;;;;;;10.27;9.57;;;;;;;12.81;100.00;96194.00;4904593;29;20034;-91
2023/08/12 02:11:34;;;;;;;11.63;10.73;;;;;;;12.82;100.00;96195.66;4927016;29;20035;-88
2023/08/12 02:13:59;;;;;;;12.18;9.55;;;;;;;12.77;100.00;96191.88;4928939;29;20061;-91
2023/08/12 02:16:25;;;;;;;9.93;9.07;;;;;;;12.71;100.00;96192.50;4943997;29;20039;-86
2023/08/12 02:18:50;;;;;;;9.00;8.20;;;;;;;12.68;100.00;96188.44;4947006;28;20031;-89
2023/08/12 02:21:16;;;;;;;11.25;10.25;;;;;;;12.61;100.00;96190.81;4950193;29;20417;-87
2023/08/12 02:23:44;;;;;;;12.05;11.25;;;;;;;12.60;100.00;96196.97;4918590;29;20038;-89
2023/08/12 02:26:09;;;;;;;15.40;13.90;;;;;;;12.73;100.00;96200.97;4923721;29;20794;-90
2023/08/12 02:28:35;;;;;;;18.48;16.58;;;;;;;12.76;100.00;96193.66;4910898;29;20172;-91
2023/08/12 02:31:00;;;;;;;19.80;17.90;;;;;;;12.75;100.00;96194.63;4910931;29;20028;-90
2023/08/12 02:33:25;;;;;;;15.27;13.43;;;;;;;12.61;100.00;96195.19;4925173;29;20458;-85
2023/08/12 02:35:54;;;;;;;11.65;10.73;;;;;;;12.51;100.00;96213.50;5243597;23;20043;-84
2023/08/12 02:38:19;;;;;;;11.38;10.43;;;;;;;12.46;100.00;96220.09;5878444;23;20022;-84
2023/08/12 02:40:47;;;;;;;10.70;9.43;;;;;;;12.42;100.00;96224.78;4948590;29;20036;-84
2023/08/12 02:45:48;;;;;;;11.90;10.80;;;;;;;12.31;100.00;96242.38;5184787;23;20370;-89
2023/08/12 02:48:13;;;;;;;10.57;9.68;;;;;;;12.37;100.00;96246.97;4933804;29;20024;-88
2023/08/12 02:50:39;;;;;;;15.25;13.70;;;;;;;12.36;100.00;96256.53;4929807;29;20885;-87
2023/08/12 03:06:00;;;;;;;10.48;9.25;;;;;;;12.18;100.00;96293.88;5877053;23;20133;-88
2023/08/12 03:16:15;;;;;;;10.27;9.50;;;;;;;12.22;100.00;96331.59;5355501;23;20613;-89
2023/08/12 03:18:40;;;;;;;11.00;10.20;;;;;;;12.21;100.00;96333.34;5355065;23;20030;-88
2023/08/12 03:26:16;;;;;;;9.68;8.88;;;;;;;12.21;100.00;96329.94;5714475;23;20071;-90
2023/08/12 03:28:42;;;;;;;10.68;9.68;;;;;;;12.30;100.00;96318.66;4927473;29;20035;-90
2023/08/12 03:31:07;;;;;;;9.82;9.02;;;;;;;12.41;100.00;96302.88;4931059;29;20031;-93
2023/08/12 03:33:33;;;;;;;10.85;9.80;;;;;;;12.37;100.00;96283.34;4930181;29;20020;-90
2023/08/12 03:35:59;;;;;;;8.95;8.13;;;;;;;12.23;100.00;96257.91;4933358;29;20042;-89
2023/08/12 03:38:24;;;;;;;11.40;8.32;;;;;;;12.39;100.00;96261.47;4933305;29;20075;-94
2023/08/12 03:40:50;;;;;;;8.48;7.78;;;;;;;12.45;100.00;96234.88;4930214;29;20030;-89
2023/08/12 03:43:15;;;;;;;12.57;9.35;;;;;;;12.31;100.00;96226.78;4927775;29;20055;-88
2023/08/12 03:45:44;;;;;;;8.50;7.80;;;;;;;12.27;100.00;96225.44;4930347;29;20039;-86
2023/08/12 03:48:10;;;;;;;9.43;8.20;;;;;;;12.32;100.00;96225.84;4932490;29;20016;-87
2023/08/12 03:50:39;;;;;;;8.50;7.90;;;;;;;12.37;100.00;96221.00;4926205;29;20045;-88
2023/08/12 03:53:05;;;;;;;10.98;7.32;;;;;;;12.53;100.00;96208.13;4924270;29;20048;-89
2023/08/12 03:55:33;;;;;;;9.77;8.75;;;;;;;12.55;100.00;96199.19;4911463;29;20055;-90
2023/08/12 03:57:59;;;;;;;8.33;7.63;;;;;;;12.67;100.00;96179.00;4926678;29;20031;-90
2023/08/12 04:00:25;;;;;;;9.50;8.20;;;;;;;12.72;100.00;96162.91;4909129;29;20032;-89
2023/08/12 04:02:50;;;;;;;7.95;7.43;;;;;;;12.73;100.00;96146.38;4925406;29;20031;-89
2023/08/12 04:05:16;;;;;;;8.85;8.02;;;;;;;12.76;100.00;96133.88;4928772;29;20102;-90
2023/08/12 04:07:42;;;;;;;8.30;7.50;;;;;;;12.78;100.00;96121.53;4929542;29;20071;-89
2023/08/12 04:10:08;;;;;;;8.60;7.90;;;;;;;12.75;100.00;96124.44;4929317;29;20716;-89
2023/08/12 04:12:33;;;;;;;7.90;7.25;;;;;;;12.86;100.00;96124.19;4927459;29;20592;-89
2023/08/12 04:15:00;;;;;;;8.40;7.57;;;;;;;12.90;100.00;96122.91;4928505;29;20618;-88
2023/08/12 04:17:25;;;;;;;8.02;7.53;;;;;;;12.96;100.00;96118.88;4927924;29;20744;-88
2023/08/12 04:19:51;;;;;;;7.75;7.15;;;;;;;13.14;100.00;96104.00;4928890;29;20023;-88
2023/08/12 04:22:16;;;;;;;7.57;6.75;;;;;;;13.28;100.00;96066.97;4927559;29;20402;-89
2023/08/12 04:24:42;;;;;;;7.90;7.20;;;;;;;13.41;100.00;96050.91;4918449;29;20481;-89
2023/08/12 04:27:07;;;;;;;9.38;7.32;;;;;;;13.58;100.00;96034.34;4912245;29;20040;-89
2023/08/12 04:29:34;;;;;;;7.93;7.22;;;;;;;13.82;100.00;96008.28;4928202;29;20027;-89
2023/08/12 04:32:00;;;;;;;11.07;6.45;;;;;;;14.10;100.00;95970.44;4928381;29;20498;-88
2023/08/12 04:34:25;;;;;;;6.18;5.68;;;;;;;14.88;100.00;95873.97;4928267;29;20020;-88
2023/08/12 04:36:50;;;;;;;5.18;4.80;;;;;;;17.03;100.00;95606.72;4928695;29;20407;-86
2023/08/12 04:39:16;;;;;;;4.68;3.95;;;;;;;18.60;100.00;95409.44;4926514;29;20031;-87
2023/08/12 04:41:41;;;;;;;3.35;3.05;;;;;;;19.33;100.00;95361.53;4928638;29;20040;-87
2023/08/12 04:44:07;;;;;;;4.30;4.00;;;;;;;20.62;100.00;95342.22;4926062;29;20111;-80
2023/08/12 04:46:32;;;;;;;5.57;3.60;;;;;;;20.59;100.00;95338.19;4925355;29;20031;-84
2023/08/12 04:48:59;;;;;;;11.25;4.20;;;;;;;21.12;100.00;95335.66;4912393;29;20611;-94
2023/08/12 04:51:25;;;;;;;5.03;3.80;;;;;;;21.50;100.00;95320.22;4908995;29;20114;-90
2023/08/12 04:53:50;;;;;;;4.97;4.57;;;;;;;20.97;100.00;95322.88;4921256;29;20170;-83
2023/08/12 04:56:17;;;;;;;4.55;4.18;;;;;;;21.37;100.00;95325.72;4925337;29;20031;-92
2023/08/12 04:58:42;;;;;;;9.18;4.15;;;;;;;21.32;100.00;95330.06;4921043;29;20036;-88
2023/08/12 05:01:08;;;;;;;4.95;4.22;;;;;;;21.68;100.00;95331.66;4920715;29;20406;-89
2023/08/12 05:03:33;;;;;;;5.20;4.80;;;;;;;22.55;100.00;95323.50;4929879;29;20032;-95
2023/08/12 05:05:59;;;;;;;5.18;4.78;;;;;;;22.21;100.00;95329.69;4928992;29;20387;-89
2023/08/12 05:08:24;;;;;;;4.82;3.53;;;;;;;23.29;100.00;95324.28;4925745;29;20627;-88
2023/08/12 05:10:50;;;;;;;4.57;4.18;;;;;;;24.62;91.99;95329.34;4928605;29;20046;-91
2023/08/12 05:13:16;;;;;;;8.57;4.38;;;;;;;24.83;91.66;95324.25;4925208;29;20470;-92
2023/08/12 05:15:41;;;;;;;3.55;3.25;;;;;;;25.24;90.13;95331.53;4925204;29;20573;-94
2023/08/12 05:18:07;;;;;;;4.32;4.03;;;;;;;26.66;81.93;95328.69;4909771;29;20128;-88
2023/08/12 05:20:32;;;;;;;3.10;2.83;;;;;;;25.89;86.46;95328.59;4921643;29;20063;-89
2023/08/12 05:22:58;;;;;;;3.63;3.35;;;;;;;26.86;79.85;95329.84;4921498;29;20032;-85
2023/08/12 05:25:23;;;;;;;3.00;2.80;;;;;;;27.18;75.85;95325.09;4928572;29;20040;-89
2023/08/12 05:27:50;;;;;;;4.20;3.15;;;;;;;28.11;69.82;95333.59;4927413;29;20572;-91
2023/08/12 05:30:15;;;;;;;3.38;3.17;;;;;;;28.40;68.81;95331.09;4927720;29;20069;-91
2023/08/12 05:32:41;;;;;;;3.50;3.22;;;;;;;29.73;58.70;95339.63;4921684;29;20056;-90
2023/08/12 05:35:06;;;;;;;3.65;3.30;;;;;;;30.18;57.36;95341.06;4907937;29;20049;-92
2023/08/12 05:37:32;;;;;;;4.45;2.80;;;;;;;29.95;56.23;95347.22;4921975;29;20051;-93
2023/08/12 05:39:57;;;;;;;2.95;2.70;;;;;;;31.02;52.59;95346.81;4910239;29;20947;-89
2023/08/12 05:42:23;;;;;;;2.80;2.60;;;;;;;30.99;51.44;95342.00;4909167;29;20032;-92
2023/08/12 05:44:48;;;;;;;3.75;3.10;;;;;;;31.48;48.95;95342.34;4920021;29;20024;-90
2023/08/12 05:47:13;;;;;;;4.50;3.03;;;;;;;31.11;50.56;95350.44;4927609;29;20046;-91
2023/08/12 05:49:39;;;;;;;3.40;3.10;;;;;;;32.69;46.71;95336.72;4928413;29;20032;-89
2023/08/12 05:52:05;;;;;;;2.70;2.45;;;;;;;31.46;48.87;95338.38;4911406;29;20035;-89
2023/08/12 05:54:30;;;;;;;2.50;2.40;;;;;;;31.92;47.27;95325.81;4894839;29;20036;-90
2023/08/12 05:56:55;;;;;;;3.00;2.80;;;;;;;32.11;47.64;95339.97;4907466;29;20048;-89
2023/08/12 05:59:21;;;;;;;3.00;2.70;;;;;;;33.09;45.52;95343.94;4908157;29;20111;-89
2023/08/12 06:01:47;;;;;;;2.57;2.37;;;;;;;32.64;45.73;95331.47;4909269;29;20036;-87
2023/08/12 06:04:12;;;;;;;2.87;2.67;;;;;;;32.96;44.63;95341.25;4906591;29;20032;-86
2023/08/12 06:06:37;;;;;;;2.87;2.67;;;;;;;33.39;43.30;95332.47;4908632;29;20486;-89
2023/08/12 06:09:03;;;;;;;2.77;2.53;;;;;;;33.77;41.70;95329.47;4907044;29;20852;-88
2023/08/12 06:11:28;;;;;;;4.03;2.20;;;;;;;33.96;42.94;95324.66;4906132;29;20051;-90
2023/08/12 06:13:54;;;;;;;3.60;1.90;;;;;;;34.06;42.03;95327.09;4912853;29;20493;-86
2023/08/12 06:16:19;;;;;;;2.50;2.30;;;;;;;33.76;41.75;95320.59;4922459;29;20040;-92
2023/08/12 06:18:44;;;;;;;2.80;2.57;;;;;;;33.78;41.46;95321.06;4915844;29;20035;-90
2023/08/12 06:21:10;;;;;;;2.55;2.35;;;;;;;33.30;43.01;95323.56;4910971;29;20394;-90
2023/08/12 06:23:35;;;;;;;3.00;2.70;;;;;;;33.39;44.29;95316.34;4924999;29;20035;-90
2023/08/12 06:26:02;;;;;;;5.57;2.70;;;;;;;33.26;43.33;95322.59;4921915;29;20111;-92
2023/08/12 06:28:27;;;;;;;2.70;2.50;;;;;;;33.99;41.81;95323.25;4904312;29;20024;-89
2023/08/12 06:30:53;;;;;;;4.45;2.80;;;;;;;32.68;43.40;95313.66;4906070;29;20031;-86
2023/08/12 06:33:20;;;;;;;3.58;2.95;;;;;;;29.52;50.84;95318.72;4913845;29;20115;-87
2023/08/12 06:35:45;;;;;;;3.17;2.70;;;;;;;28.62;55.61;95312.88;4923493;29;20041;-83
2023/08/12 06:38:10;;;;;;;4.45;3.05;;;;;;;28.92;56.27;95309.25;4924661;29;20026;-86
2023/08/12 06:40:38;;;;;;;4.53;2.88;;;;;;;29.09;57.33;95309.69;4924676;29;20094;-90
2023/08/12 06:43:03;;;;;;;3.00;2.78;;;;;;;28.66;57.18;95308.63;4913417;29;20112;-84
2023/08/12 06:45:29;;;;;;;3.17;2.90;;;;;;;31.09;53.35;95315.91;4916503;29;20107;-88
2023/08/12 06:47:54;;;;;;;2.72;2.55;;;;;;;30.81;49.96;95306.09;4908137;29;20024;-88
2023/08/12 06:50:20;;;;;;;3.10;2.80;;;;;;;29.25;57.66;95308.53;4926970;29;20115;-90
2023/08/12 06:52:45;;;;;;;6.75;2.80;;;;;;;29.00;56.82;95308.66;4925955;29;20043;-88
2023/08/12 06:55:10;;;;;;;3.17;2.97;;;;;;;28.66;56.70;95300.63;4904805;29;20024;-95
2023/08/12 06:57:36;;;;;;;2.47;2.28;;;;;;;28.64;59.40;95308.84;4901376;29;20032;-85
2023/08/12 07:00:02;;;;;;;3.28;2.20;;;;;;;28.43;60.47;95303.88;4912023;29;20042;-91
2023/08/12 07:02:28;;;;;;;2.33;2.13;;;;;;;28.02;60.08;95304.03;4905581;29;20486;-92
2023/08/12 07:04:53;;;;;;;2.47;2.28;;;;;;;30.04;55.90;95307.28;4907450;29;20039;-91
2023/08/12 07:07:19;;;;;;;2.60;2.40;;;;;;;33.09;46.02;95302.84;4917054;29;20126;-86
2023/08/12 07:09:44;;;;;;;2.73;1.97;;;;;;;34.06;42.26;95304.75;4928137;29;20170;-91
2023/08/12 07:12:09;;;;;;;2.33;2.03;;;;;;;34.66;40.23;95305.00;4928653;29;20024;-94
2023/08/12 07:14:35;;;;;;;2.85;2.03;;;;;;;34.01;41.92;95300.28;4915162;29;20035;-91
2023/08/12 07:17:01;;;;;;;3.20;2.20;;;;;;;33.68;42.27;95296.34;4927456;29;20028;-94
2023/08/12 07:19:26;;;;;;;2.92;2.50;;;;;;;31.35;45.94;95297.56;4925371;29;20482;-92
2023/08/12 07:21:51;;;;;;;4.60;2.47;;;;;;;28.60;51.09;95291.81;4928440;29;20035;-87
2023/08/12 07:24:17;;;;;;;3.35;2.55;;;;;;;27.63;59.28;95289.72;4926596;29;20047;-90
2023/08/12 07:26:42;;;;;;;4.32;2.78;;;;;;;27.87;57.71;95295.28;4925744;29;20498;-89
2023/08/12 07:29:08;;;;;;;4.82;3.60;;;;;;;27.78;61.83;95292.34;4913979;29;20047;-87
2023/08/12 07:31:33;;;;;;;3.33;3.03;;;;;;;27.84;61.41;95290.50;4929911;29;20858;-91
2023/08/12 07:33:59;;;;;;;3.00;2.70;;;;;;;27.79;59.95;95282.50;4915725;29;20421;-88
2023/08/12 07:36:24;;;;;;;4.90;2.95;;;;;;;27.44;59.39;95289.47;4927072;29;20035;-88
2023/08/12 07:38:50;;;;;;;3.45;3.08;;;;;;;28.14;59.08;95283.22;4913640;29;20354;-89
2023/08/12 07:41:15;;;;;;;3.03;2.83;;;;;;;27.85;63.34;95281.41;4925839;29;20581;-90
2023/08/12 07:43:41;;;;;;;3.40;3.10;;;;;;;27.20;63.72;95283.06;4928138;29;20077;-90
2023/08/12 07:46:06;;;;;;;3.50;3.15;;;;;;;27.31;64.79;95286.53;4926267;29;20062;-93
2023/08/12 07:48:33;;;;;;;4.57;2.58;;;;;;;27.39;61.41;95268.16;4928247;29;20537;-89
2023/08/12 07:50:59;;;;;;;3.85;2.45;;;;;;;27.26;62.92;95268.69;4926289;29;20047;-94
2023/08/12 07:53:25;;;;;;;7.03;2.75;;;;;;;27.45;62.16;95269.78;4927042;29;20065;-93
2023/08/12 07:55:51;;;;;;;3.45;2.70;;;;;;;27.49;59.80;95272.69;4928821;29;20019;-90
2023/08/12 07:58:17;;;;;;;4.05;2.60;;;;;;;27.42;63.51;95266.84;4916244;29;20039;-91
2023/08/12 08:00:42;;;;;;;2.70;2.47;;;;;;;27.32;62.68;95257.00;4924351;29;20138;-91
2023/08/12 08:03:08;;;;;;;4.57;2.50;;;;;;;26.96;60.07;95269.50;4923794;29;20031;-85
2023/08/12 08:05:33;;;;;;;4.32;2.70;;;;;;;27.19;65.01;95268.97;4920500;29;20020;-93
2023/08/12 08:07:58;;;;;;;4.25;2.83;;;;;;;26.86;58.28;95263.34;4923155;29;20031;-89
2023/08/12 08:10:24;;;;;;;4.43;2.83;;;;;;;26.73;65.73;95264.66;4926535;29;20020;-96
2023/08/12 08:12:49;;;;;;;7.70;2.90;;;;;;;27.15;65.58;95265.25;4925976;29;20036;-90
2023/08/12 08:15:15;;;;;;;3.30;2.40;;;;;;;27.09;59.51;95261.00;4920515;29;20028;-88
2023/08/12 08:17:40;;;;;;;3.00;2.80;;;;;;;26.88;63.79;95261.22;4916070;29;20028;-90
2023/08/12 08:20:06;;;;;;;4.25;3.13;;;;;;;26.85;65.95;95261.75;4925107;29;20070;-89
2023/08/12 08:22:32;;;;;;;4.63;2.97;;;;;;;27.68;65.23;95255.88;4926767;29;20066;-90
2023/08/12 08:24:57;;;;;;;4.55;2.60;;;;;;;27.89;65.55;95253.19;4925234;29;20118;-96
2023/08/12 08:27:23;;;;;;;2.90;2.53;;;;;;;27.75;59.10;95259.06;4917999;29;20078;-84
2023/08/12 08:29:48;;;;;;;3.03;2.72;;;;;;;27.73;62.87;95247.91;4917443;29;20050;-90
2023/08/12 08:32:14;;;;;;;2.90;2.70;;;;;;;27.40;61.38;95248.47;4927267;29;20035;-90
2023/08/12 08:34:39;;;;;;;3.67;2.60;;;;;;;27.66;61.92;95251.91;4925367;29;20032;-90
2023/08/12 08:37:05;;;;;;;4.43;2.47;;;;;;;27.71;60.98;95249.22;4924274;29;20046;-89
2023/08/12 08:39:30;;;;;;;2.58;2.38;;;;;;;27.84;58.41;95248.66;4915835;29;20083;-89
2023/08/12 08:41:56;;;;;;;3.60;2.40;;;;;;;27.30;58.54;95242.34;4924891;29;20134;-94
2023/08/12 08:44:23;;;;;;;4.28;2.53;;;;;;;27.47;58.07;95248.22;4912825;29;20119;-90
2023/08/12 08:46:51;;;;;;;2.97;2.40;;;;;;;27.07;57.38;95230.38;4912728;29;20032;-86
2023/08/12 08:49:17;;;;;;;2.83;2.50;;;;;;;27.12;60.05;95238.38;4920071;29;20040;-93
2023/08/12 08:51:43;;;;;;;2.40;2.30;;;;;;;27.56;61.05;95241.28;4915699;29;20573;-87
2023/08/12 08:54:09;;;;;;;3.90;2.63;;;;;;;26.95;59.32;95237.84;4924069;29;20047;-85
2023/08/12 08:56:35;;;;;;;3.50;3.20;;;;;;;27.59;61.42;95230.09;4915480;29;20040;-88
2023/08/12 08:59:01;;;;;;;7.53;2.90;;;;;;;27.44;62.54;95225.59;4904900;29;20466;-86
2023/08/12 09:01:27;;;;;;;4.13;2.53;;;;;;;27.63;60.53;95221.28;4921422;29;20056;-89
2023/08/12 09:03:53;;;;;;;2.50;2.25;;;;;;;27.59;58.94;95222.91;4912856;29;20086;-88
2023/08/12 09:06:20;;;;;;;2.78;2.50;;;;;;;26.41;61.49;95224.97;4894891;29;20581;-89
2023/08/12 09:08:47;;;;;;;4.03;2.50;;;;;;;27.27;61.70;95221.59;4908655;29;20687;-83
2023/08/12 09:11:13;;;;;;;3.90;2.60;;;;;;;26.98;57.57;95219.47;4908182;29;20098;-96
2023/08/12 09:13:39;;;;;;;2.63;2.00;;;;;;;26.90;57.17;95212.06;4907766;29;20855;-81
2023/08/12 09:16:04;;;;;;;3.03;2.15;;;;;;;27.44;60.32;95209.63;4906269;29;20032;-86
2023/08/12 09:18:30;;;;;;;2.75;2.47;;;;;;;27.10;59.42;95200.59;4922689;29;20126;-87
2023/08/12 09:20:55;;;;;;;2.50;2.30;;;;;;;27.54;58.88;95209.59;4907000;29;20028;-87
2023/08/12 09:23:20;;;;;;;6.05;2.58;;;;;;;27.53;58.06;95205.34;4923844;29;20110;-90
2023/08/12 09:25:46;;;;;;;2.13;2.03;;;;;;;27.86;58.10;95200.44;4918439;29;20082;-86
2023/08/12 09:28:12;;;;;;;2.10;1.98;;;;;;;27.65;53.94;95197.84;4905235;29;20556;-84
2023/08/12 09:30:38;;;;;;;3.67;2.35;;;;;;;27.70;58.26;95199.72;4910907;29;20043;-87
2023/08/12 09:33:08;;;;;;;3.45;2.47;;;;;;;27.88;59.13;95195.63;4900770;29;20021;-86
2023/08/12 09:35:40;;;;;;;3.60;2.30;;;;;;;27.63;57.00;95194.66;4900303;29;20116;-89
2023/08/12 09:38:07;;;;;;;2.40;2.20;;;;;;;27.97;58.58;95196.66;4903186;29;20096;-95
2023/08/12 09:40:34;;;;;;;2.25;1.85;;;;;;;27.86;52.79;95184.47;4899350;29;20810;-88
2023/08/12 09:43:00;;;;;;;2.92;1.90;;;;;;;27.54;52.30;95184.84;4906163;29;20454;-88
2023/08/12 09:45:26;;;;;;;2.30;2.10;;;;;;;27.70;55.15;95179.22;4901455;29;20032;-87
2023/08/12 09:47:55;;;;;;;3.25;1.92;;;;;;;27.90;57.07;95181.00;4903856;29;20525;-92
2023/08/12 09:50:22;;;;;;;2.30;2.15;;;;;;;27.86;55.27;95182.59;4902183;29;20032;-87
2023/08/12 09:52:47;;;;;;;2.25;1.73;;;;;;;27.82;54.39;95178.09;4908245;29;20035;-86
2023/08/12 09:55:16;;;;;;;2.17;2.05;;;;;;;27.90;55.28;95172.22;4907404;29;20027;-85
2023/08/12 09:57:43;;;;;;;2.42;1.80;;;;;;;27.85;54.71;95181.00;4907339;29;20035;-90
2023/08/12 10:00:16;;;;;;;1.80;1.70;;;;;;;26.26;56.37;95171.03;4906487;29;20024;-85
2023/08/12 10:02:46;;;;;;;2.40;2.20;;;;;;;27.21;57.81;95167.59;4907212;29;20108;-87
2023/08/12 10:05:16;;;;;;;3.08;2.10;;;;;;;27.40;52.20;95167.81;4904291;29;20032;-92
2023/08/12 10:07:43;;;;;;;4.40;2.30;;;;;;;27.49;53.90;95166.22;4920038;29;20047;-86
2023/08/12 10:10:09;;;;;;;4.70;1.98;;;;;;;27.84;54.44;95162.66;4905019;29;20081;-85
2023/08/12 10:12:36;;;;;;;1.67;1.58;;;;;;;26.27;52.72;95159.31;4899334;29;20036;-86
2023/08/12 10:15:02;;;;;;;1.90;1.80;;;;;;;26.82;53.03;95154.06;4905058;29;20107;-87
2023/08/12 10:17:28;;;;;;;1.77;1.67;;;;;;;27.42;52.56;95150.50;4903345;29;20156;-86
2023/08/12 10:19:59;;;;;;;2.38;2.00;;;;;;;27.71;53.11;95154.16;4907557;29;20039;-86
2023/08/12 10:22:29;;;;;;;2.75;1.70;;;;;;;27.16;51.05;95143.66;4916721;29;20043;-89
2023/08/12 10:24:56;;;;;;;2.63;1.75;;;;;;;26.90;52.06;95136.78;4919564;29;20161;-90
2023/08/12 10:27:23;;;;;;;3.35;1.60;;;;;;;27.05;51.74;95142.06;4925669;29;20055;-89
2023/08/12 10:29:49;;;;;;;3.03;1.90;;;;;;;26.50;51.34;95138.34;4926455;29;20038;-82
2023/08/12 10:32:14;;;;;;;2.10;1.90;;;;;;;27.23;52.23;95136.19;4919130;29;20036;-86
2023/08/12 10:34:40;;;;;;;1.70;1.60;;;;;;;27.72;53.10;95131.00;4916473;29;20042;-90
2023/08/12 10:37:06;;;;;;;3.42;1.70;;;;;;;27.39;50.48;95131.63;4923037;29;20039;-85
2023/08/12 10:39:32;;;;;;;1.83;1.70;;;;;;;27.89;53.51;95138.63;4904169;29;20176;-84
2023/08/12 10:41:58;;;;;;;3.15;1.80;;;;;;;28.30;52.90;95125.91;4921484;29;20038;-83
2023/08/12 10:44:39;;;;;;;2.88;1.67;;;;;;;27.86;48.77;95133.88;4907562;29;20033;-84
2023/08/12 10:47:08;;;;;;;2.85;1.70;;;;;;;28.11;50.54;95131.09;4916012;29;20027;-86
2023/08/12 10:49:38;;;;;;;2.10;1.60;;;;;;;28.17;51.81;95132.66;4919649;29;20034;-89
2023/08/12 10:52:04;;;;;;;3.50;1.83;;;;;;;27.77;48.95;95114.22;4907739;29;20066;-81
2023/08/12 10:54:30;;;;;;;1.83;1.73;;;;;;;28.18;48.81;95120.91;4924241;29;20509;-84
2023/08/12 10:57:04;;;;;;;2.22;1.60;;;;;;;28.12;49.61;95114.84;4906890;29;20067;-85
2023/08/12 10:59:44;;;;;;;1.90;1.80;;;;;;;28.36;49.23;95111.47;4912009;29;20402;-90
2023/08/12 11:02:21;;;;;;;3.35;1.63;;;;;;;28.48;46.85;95115.34;4906784;29;20110;-86
2023/08/12 11:05:10;;;;;;;2.33;1.48;;;;;;;28.49;48.97;95102.84;4920426;29;20453;-88
2023/08/12 11:07:40;;;;;;;2.35;1.70;;;;;;;28.58;47.83;95104.63;4915384;29;20048;-87
2023/08/12 11:10:14;;;;;;;1.73;1.63;;;;;;;28.68;47.79;95104.56;4904328;29;20043;-88
2023/08/12 11:12:42;;;;;;;2.10;1.30;;;;;;;28.04;46.41;95098.59;4908050;29;20732;-93
2023/08/12 11:15:09;;;;;;;3.08;1.52;;;;;;;27.32;47.37;95102.66;4907038;29;20478;-87
2023/08/12 11:17:37;;;;;;;3.95;1.60;;;;;;;28.72;48.65;95102.94;4910192;29;20052;-86
2023/08/12 11:20:06;;;;;;;1.60;1.50;;;;;;;28.22;43.60;95095.31;4912200;29;20032;-90
2023/08/12 11:22:32;;;;;;;;;;;;;;;28.24;44.61;95095.84;4907212;29;20036;-92
2023/08/12 11:24:57;;;;;;;2.67;1.80;;;;;;;28.96;42.08;95092.28;4904531;29;19919;-85
2023/08/12 11:27:23;;;;;;;2.97;1.58;;;;;;;28.33;43.88;95096.03;4914281;29;21449;-87
2023/08/12 11:29:52;;;;;;;1.60;1.50;;;;;;;28.63;45.87;95085.13;4906402;29;20536;-89
2023/08/12 11:32:18;;;;;;;1.83;1.73;;;;;;;28.65;42.21;95086.47;4899049;29;20028;-89
2023/08/12 11:34:44;;;;;;;1.48;1.35;;;;;;;28.89;45.00;95083.06;4924570;29;20028;-86
2023/08/12 11:37:09;;;;;;;4.60;1.70;;;;;;;29.13;44.14;95084.66;4925043;29;20024;-88
2023/08/12 11:39:35;;;;;;;1.48;1.38;;;;;;;28.12;44.81;95079.41;4914657;29;20032;-91
2023/08/12 11:42:00;;;;;;;2.50;1.50;;;;;;;28.57;47.22;95076.38;4906769;29;20434;-84
2023/08/12 11:44:26;;;;;;;2.30;1.42;;;;;;;28.65;46.32;95077.63;4913965;29;20035;-91
2023/08/12 11:46:51;;;;;;;3.33;1.73;;;;;;;28.32;46.70;95087.22;4924954;29;20109;-90
2023/08/12 11:49:17;;;;;;;3.00;1.60;;;;;;;28.37;47.63;95079.22;4906414;29;20024;-92
2023/08/12 11:51:46;;;;;;;1.77;1.67;;;;;;;28.04;49.32;95082.59;4907001;29;20459;-92
2023/08/12 11:54:11;;;;;;;2.33;1.75;;;;;;;27.93;49.55;95089.09;4913092;29;20026;-90
2023/08/12 11:56:37;;;;;;;3.05;1.60;;;;;;;27.92;51.72;95079.50;4928382;29;20437;-91
2023/08/12 11:59:02;;;;;;;3.45;1.60;;;;;;;27.67;50.73;95077.78;4911322;29;20036;-88